createdAt,value
2022-10-04T00:01:12.223Z,13.40
2022-10-04T00:03:44.959Z,13.30
2022-10-04T00:06:18.610Z,13.30
2022-10-04T00:08:49.898Z,13.30
2022-10-04T00:11:23.658Z,13.30
2022-10-04T00:13:59.142Z,13.30
2022-10-04T00:16:32.134Z,13.40
2022-10-04T00:19:27.061Z,13.30
2022-10-04T00:22:20.424Z,13.30
2022-10-04T00:25:19.201Z,13.30
2022-10-04T00:28:29.473Z,13.30
2022-10-04T00:31:19.204Z,13.30
2022-10-04T00:33:49.059Z,13.30
2022-10-04T00:36:53.155Z,13.30
2022-10-04T00:39:43.650Z,13.30
2022-10-04T00:42:33.514Z,13.30
2022-10-04T00:45:05.643Z,13.40
2022-10-04T00:47:40.034Z,13.40
2022-10-04T00:50:16.943Z,13.40
2022-10-04T00:52:48.468Z,13.40
2022-10-04T00:55:24.996Z,13.30
2022-10-04T00:57:59.337Z,13.30
2022-10-04T01:00:27.912Z,13.30
2022-10-04T01:03:02.332Z,13.30
2022-10-04T01:05:34.138Z,13.30
2022-10-04T01:08:09.493Z,13.30
2022-10-04T01:10:43.227Z,13.30
2022-10-04T01:13:14.899Z,13.40
2022-10-04T01:15:50.351Z,13.40
2022-10-04T01:18:30.229Z,13.40
2022-10-04T01:21:01.036Z,13.40
2022-10-04T01:23:42.846Z,13.40
2022-10-04T01:26:41.414Z,13.30
2022-10-04T01:29:15.283Z,13.30
2022-10-04T01:31:46.506Z,13.30
2022-10-04T01:34:16.454Z,13.30
2022-10-04T01:36:47.231Z,13.30
2022-10-04T01:39:18.283Z,13.30
2022-10-04T01:41:52.973Z,13.30
2022-10-04T01:44:31.269Z,13.30
2022-10-04T01:47:03.838Z,13.30
2022-10-04T01:49:42.985Z,13.30
2022-10-04T01:52:17.119Z,13.30
2022-10-04T01:54:51.103Z,13.20
2022-10-04T01:57:23.351Z,13.20
2022-10-04T01:59:55.400Z,13.20
2022-10-04T02:02:30.050Z,13.20
2022-10-04T02:05:00.452Z,13.20
2022-10-04T02:07:32.979Z,13.20
2022-10-04T02:10:06.121Z,13.10
2022-10-04T02:12:35.615Z,13.00
2022-10-04T02:15:08.005Z,13.00
2022-10-04T02:17:42.830Z,12.90
2022-10-04T02:20:15.127Z,12.90
2022-10-04T02:22:44.236Z,12.90
2022-10-04T02:25:19.502Z,12.90
2022-10-04T02:27:47.514Z,12.90
2022-10-04T02:30:15.472Z,12.80
2022-10-04T02:32:59.752Z,12.90
2022-10-04T02:35:31.398Z,12.80
2022-10-04T02:38:10.169Z,12.80
2022-10-04T02:40:45.951Z,12.80
2022-10-04T02:43:18.901Z,12.80
2022-10-04T02:45:51.906Z,12.80
2022-10-04T02:48:32.364Z,12.80
2022-10-04T02:51:12.730Z,12.80
2022-10-04T02:53:51.373Z,12.80
2022-10-04T02:56:22.228Z,12.80
2022-10-04T02:58:50.444Z,12.80
2022-10-04T03:01:26.909Z,12.70
2022-10-04T03:03:56.845Z,12.70
2022-10-04T03:06:29.931Z,12.70
2022-10-04T03:09:00.385Z,12.60
2022-10-04T03:11:34.806Z,12.40
2022-10-04T03:14:07.177Z,12.50
2022-10-04T03:16:37.371Z,12.40
2022-10-04T03:19:06.289Z,12.30
2022-10-04T03:21:34.996Z,12.30
2022-10-04T03:24:04.906Z,12.20
2022-10-04T03:26:39.864Z,12.20
2022-10-04T03:29:10.166Z,12.20
2022-10-04T03:31:44.089Z,12.20
2022-10-04T03:34:16.779Z,12.20
2022-10-04T03:36:47.341Z,12.30
2022-10-04T03:39:22.330Z,12.30
2022-10-04T03:41:51.757Z,12.30
2022-10-04T03:44:20.962Z,12.40
2022-10-04T03:46:49.155Z,12.40
2022-10-04T03:49:24.931Z,12.40
2022-10-04T03:51:53.844Z,12.50
2022-10-04T03:54:27.910Z,12.40
2022-10-04T03:56:58.005Z,12.40
2022-10-04T03:59:27.926Z,12.40
2022-10-04T04:02:06.005Z,12.40
2022-10-04T04:04:43.013Z,12.40
2022-10-04T04:07:19.829Z,12.50
2022-10-04T04:09:51.874Z,12.60
2022-10-04T04:12:25.329Z,12.60
2022-10-04T04:14:54.645Z,12.50
2022-10-04T04:17:38.073Z,12.60
2022-10-04T04:20:13.749Z,12.60
2022-10-04T04:22:46.551Z,12.60
2022-10-04T04:25:16.963Z,12.60
2022-10-04T04:27:50.281Z,12.60
2022-10-04T04:30:19.238Z,12.60
2022-10-04T04:32:52.572Z,12.50
2022-10-04T04:35:25.697Z,12.60
2022-10-04T04:38:15.837Z,12.50
2022-10-04T04:40:44.509Z,12.50
2022-10-04T04:43:19.784Z,12.50
2022-10-04T04:46:02.998Z,12.50
2022-10-04T04:48:38.471Z,12.50
2022-10-04T04:51:06.839Z,12.50
2022-10-04T04:53:34.735Z,12.50
2022-10-04T04:56:05.470Z,12.50
2022-10-04T04:58:37.399Z,12.40
2022-10-04T05:01:08.473Z,12.40
2022-10-04T05:03:36.540Z,12.40
2022-10-04T05:06:04.849Z,12.30
2022-10-04T05:08:41.517Z,12.20
2022-10-04T05:11:16.015Z,12.20
2022-10-04T05:13:49.839Z,12.10
2022-10-04T05:16:24.113Z,12.00
2022-10-04T05:19:04.432Z,11.90
2022-10-04T05:21:40.821Z,11.90
2022-10-04T05:24:12.667Z,11.80
2022-10-04T05:26:43.531Z,11.80
2022-10-04T05:29:18.177Z,11.70
2022-10-04T05:31:56.312Z,11.70
2022-10-04T05:34:32.419Z,11.60
2022-10-04T05:37:16.781Z,11.60
2022-10-04T05:40:05.995Z,11.60
2022-10-04T05:42:41.448Z,11.60
2022-10-04T05:45:20.057Z,11.60
2022-10-04T05:47:53.528Z,11.60
2022-10-04T05:50:29.729Z,11.60
2022-10-04T05:53:23.855Z,11.60
2022-10-04T05:56:05.473Z,11.60
2022-10-04T05:58:49.297Z,11.70
2022-10-04T06:01:29.122Z,11.70
2022-10-04T06:04:22.883Z,11.60
2022-10-04T06:06:56.021Z,11.60
2022-10-04T06:09:49.690Z,11.60
2022-10-04T06:12:30.063Z,11.70
2022-10-04T06:15:19.008Z,11.70
2022-10-04T06:18:35.214Z,11.70
2022-10-04T06:21:20.606Z,11.80
2022-10-04T06:23:56.134Z,11.80
2022-10-04T06:26:26.734Z,11.80
2022-10-04T06:28:58.776Z,11.90
2022-10-04T06:31:59.384Z,12.00
2022-10-04T06:34:55.581Z,12.00
2022-10-04T06:37:44.405Z,12.10
2022-10-04T06:40:48.618Z,12.10
2022-10-04T06:43:47.051Z,12.10
2022-10-04T06:46:20.358Z,12.10
2022-10-04T06:49:14.746Z,12.10
2022-10-04T06:52:01.957Z,12.20
2022-10-04T06:54:46.836Z,12.20
2022-10-04T06:57:34.500Z,12.20
2022-10-04T07:00:10.586Z,12.20
2022-10-04T07:02:43.991Z,12.20
2022-10-04T07:05:30.411Z,12.30
2022-10-04T07:08:10.736Z,12.30
2022-10-04T07:10:49.568Z,12.30
2022-10-04T07:13:33.714Z,12.30
2022-10-04T07:16:08.996Z,12.40
2022-10-04T07:18:44.764Z,12.40
2022-10-04T07:21:15.778Z,12.50
2022-10-04T07:23:51.463Z,12.60
2022-10-04T07:26:29.649Z,12.60
2022-10-04T07:29:18.544Z,12.70
2022-10-04T07:31:48.787Z,12.70
2022-10-04T07:34:21.853Z,12.80
2022-10-04T07:36:52.772Z,12.90
2022-10-04T07:39:26.432Z,13.00
2022-10-04T07:41:57.331Z,12.90
2022-10-04T07:44:35.727Z,13.10
2022-10-04T07:47:09.252Z,13.10
2022-10-04T07:49:39.580Z,13.20
2022-10-04T07:52:31.293Z,13.20
2022-10-04T07:55:12.967Z,13.30
2022-10-04T07:57:51.378Z,13.20
2022-10-04T08:00:22.854Z,13.30
2022-10-04T08:03:11.152Z,13.30
2022-10-04T08:05:42.639Z,13.40
2022-10-04T08:08:37.823Z,13.40
2022-10-04T08:11:30.107Z,13.50
2022-10-04T08:14:09.117Z,13.50
2022-10-04T08:16:44.992Z,13.60
2022-10-04T08:19:28.055Z,13.70
2022-10-04T08:22:02.968Z,13.70
2022-10-04T08:24:36.818Z,13.80
2022-10-04T08:27:29.966Z,13.70
2022-10-04T08:30:10.433Z,13.80
2022-10-04T08:32:55.730Z,13.90
2022-10-04T08:35:36.098Z,13.90
2022-10-04T08:38:31.685Z,13.90
2022-10-04T08:41:24.383Z,13.90
2022-10-04T08:44:37.244Z,13.80
2022-10-04T08:47:33.362Z,13.80
2022-10-04T08:50:33.445Z,13.90
2022-10-04T08:53:37.655Z,14.10
2022-10-04T08:56:14.575Z,14.30
2022-10-04T08:59:15.699Z,14.30
2022-10-04T09:02:20.743Z,14.30
2022-10-04T09:05:18.357Z,14.50
2022-10-04T09:08:30.025Z,14.80
2022-10-04T09:11:12.384Z,15.10
2022-10-04T09:13:48.875Z,15.30
2022-10-04T09:16:18.794Z,15.50
2022-10-04T09:19:20.920Z,15.50
2022-10-04T09:22:17.147Z,15.20
2022-10-04T09:25:18.579Z,15.10
2022-10-04T09:28:13.665Z,15.10
2022-10-04T09:30:55.602Z,15.20
2022-10-04T09:34:01.242Z,15.50
2022-10-04T09:37:10.527Z,15.70
2022-10-04T09:40:13.198Z,15.90
2022-10-04T09:43:02.201Z,16.10
2022-10-04T09:45:49.401Z,16.30
2022-10-04T09:48:30.044Z,16.30
2022-10-04T09:51:19.790Z,16.20
2022-10-04T09:54:01.413Z,16.20
2022-10-04T09:56:50.206Z,16.30
2022-10-04T09:59:58.860Z,16.40
2022-10-04T10:02:58.645Z,16.50
2022-10-04T10:05:44.267Z,16.80
2022-10-04T10:08:22.052Z,16.90
2022-10-04T10:11:19.261Z,17.10
2022-10-04T10:14:18.159Z,17.20
2022-10-04T10:17:00.909Z,17.30
2022-10-04T10:19:56.955Z,17.50
2022-10-04T10:23:00.476Z,17.70
2022-10-04T10:25:48.242Z,18.00
2022-10-04T10:28:45.368Z,18.30
2022-10-04T10:31:33.941Z,18.40
2022-10-04T10:34:25.263Z,18.60
2022-10-04T10:37:09.027Z,18.70
2022-10-04T10:40:16.879Z,18.90
2022-10-04T10:43:18.395Z,18.90
2022-10-04T10:45:58.845Z,18.80
2022-10-04T10:48:45.508Z,18.90
2022-10-04T10:51:20.433Z,19.00
2022-10-04T10:54:26.062Z,19.10
2022-10-04T10:57:04.469Z,19.10
2022-10-04T11:00:14.816Z,19.40
2022-10-04T11:03:32.282Z,19.70
2022-10-04T11:06:18.138Z,20.00
2022-10-04T11:09:18.031Z,20.20
2022-10-04T11:12:25.360Z,20.20
2022-10-04T11:15:51.560Z,20.30
2022-10-04T11:19:07.222Z,20.70
2022-10-04T11:22:26.058Z,21.70
2022-10-04T11:25:17.868Z,25.00
2022-10-04T11:27:57.440Z,27.60
2022-10-04T11:30:29.722Z,29.10
2022-10-04T11:33:37.008Z,30.80
2022-10-04T11:36:28.724Z,32.40
2022-10-04T11:39:13.662Z,33.50
2022-10-04T11:41:52.400Z,34.10
2022-10-04T11:45:02.382Z,34.70
2022-10-04T11:47:40.411Z,35.80
2022-10-04T11:50:29.966Z,36.60
2022-10-04T11:53:14.290Z,37.00
2022-10-04T11:56:14.349Z,38.10
2022-10-04T11:59:07.894Z,39.20
2022-10-04T12:02:02.780Z,40.30
2022-10-04T12:05:01.100Z,40.90
2022-10-04T12:07:46.053Z,40.90
2022-10-04T12:10:26.100Z,41.60
2022-10-04T12:13:24.435Z,42.40
2022-10-04T12:16:33.606Z,43.30
2022-10-04T12:19:27.826Z,44.10
2022-10-04T12:22:46.910Z,44.20
2022-10-04T12:25:37.461Z,44.70
2022-10-04T12:28:24.379Z,44.80
2022-10-04T12:31:12.344Z,43.30
2022-10-04T12:33:47.050Z,43.50
2022-10-04T12:36:31.324Z,43.50
2022-10-04T12:39:15.022Z,43.10
2022-10-04T12:41:51.822Z,41.90
2022-10-04T12:44:35.030Z,42.60
2022-10-04T12:47:51.875Z,43.10
2022-10-04T12:50:32.134Z,42.50
2022-10-04T12:53:14.394Z,42.40
2022-10-04T12:56:00.577Z,43.00
2022-10-04T12:58:43.182Z,43.50
2022-10-04T13:01:18.689Z,43.80
2022-10-04T13:04:08.604Z,44.30
2022-10-04T13:06:51.066Z,43.60
2022-10-04T13:09:27.102Z,43.70
2022-10-04T13:12:06.732Z,44.10
2022-10-04T13:15:06.909Z,43.80
2022-10-04T13:17:44.234Z,44.30
2022-10-04T13:20:32.225Z,44.90
2022-10-04T13:23:09.144Z,44.10
2022-10-04T13:26:00.008Z,44.10
2022-10-04T13:28:39.870Z,43.90
2022-10-04T13:31:14.410Z,43.60
2022-10-04T13:33:48.513Z,43.70
2022-10-04T13:36:25.082Z,44.10
2022-10-04T13:39:24.604Z,44.40
2022-10-04T13:42:12.261Z,44.40
2022-10-04T13:44:57.407Z,44.00
2022-10-04T13:47:48.895Z,44.20
2022-10-04T13:50:36.718Z,44.40
2022-10-04T13:53:35.285Z,44.80
2022-10-04T13:56:29.740Z,44.50
2022-10-04T13:59:05.204Z,44.20
2022-10-04T14:02:12.625Z,44.00
2022-10-04T14:05:15.514Z,44.10
2022-10-04T14:08:12.093Z,44.10
2022-10-04T14:11:16.764Z,44.40
2022-10-04T14:14:19.795Z,43.70
2022-10-04T14:17:33.504Z,43.40
2022-10-04T14:20:45.279Z,42.60
2022-10-04T14:23:34.261Z,42.40
2022-10-04T14:26:31.560Z,42.10
2022-10-04T14:29:35.970Z,42.50
2022-10-04T14:32:46.846Z,42.30
2022-10-04T14:35:23.232Z,42.40
2022-10-04T14:38:27.502Z,42.40
2022-10-04T14:41:30.604Z,42.50
2022-10-04T14:44:30.763Z,42.20
2022-10-04T14:47:19.380Z,41.90
2022-10-04T14:50:09.176Z,41.90
2022-10-04T14:52:50.112Z,41.70
2022-10-04T14:55:33.423Z,41.60
2022-10-04T14:58:17.203Z,40.90
2022-10-04T15:01:16.241Z,39.30
2022-10-04T15:03:56.072Z,38.20
2022-10-04T15:06:39.976Z,37.00
2022-10-04T15:09:42.639Z,35.60
2022-10-04T15:13:09.948Z,34.20
2022-10-04T15:15:54.165Z,32.50
2022-10-04T15:18:33.899Z,31.20
2022-10-04T15:21:06.587Z,30.20
2022-10-04T15:23:39.848Z,29.50
2022-10-04T15:26:51.418Z,28.90
2022-10-04T15:29:27.038Z,28.40
2022-10-04T15:32:07.287Z,27.90
2022-10-04T15:34:46.839Z,27.30
2022-10-04T15:37:26.418Z,26.80
2022-10-04T15:40:26.437Z,26.60
2022-10-04T15:43:27.192Z,26.30
2022-10-04T15:46:19.522Z,26.00
2022-10-04T15:49:20.588Z,25.80
2022-10-04T15:52:21.434Z,25.70
2022-10-04T15:55:30.876Z,25.50
2022-10-04T15:58:33.294Z,25.30
2022-10-04T16:01:24.183Z,25.00
2022-10-04T16:04:25.238Z,24.90
2022-10-04T16:06:57.643Z,24.80
2022-10-04T16:09:39.137Z,24.50
2022-10-04T16:12:26.249Z,24.30
2022-10-04T16:15:01.204Z,24.10
2022-10-04T16:18:02.660Z,24.00
2022-10-04T16:20:56.982Z,23.80
2022-10-04T16:23:31.385Z,23.70
2022-10-04T16:26:01.572Z,23.60
2022-10-04T16:28:53.402Z,23.50
2022-10-04T16:31:38.253Z,23.30
2022-10-04T16:34:33.491Z,23.30
2022-10-04T16:37:16.283Z,23.20
2022-10-04T16:40:05.901Z,23.10
2022-10-04T16:42:48.963Z,23.00
2022-10-04T16:45:43.976Z,22.90
2022-10-04T16:48:26.404Z,22.70
2022-10-04T16:51:27.041Z,22.60
2022-10-04T16:54:00.520Z,22.50
2022-10-04T16:56:32.895Z,22.30
2022-10-04T16:59:03.433Z,22.20
2022-10-04T17:02:00.167Z,22.10
2022-10-04T17:04:56.682Z,22.00
2022-10-04T17:07:36.487Z,21.80
2022-10-04T17:10:21.085Z,21.70
2022-10-04T17:12:57.191Z,21.60
2022-10-04T17:15:47.749Z,21.50
2022-10-04T17:18:27.029Z,21.40
2022-10-04T17:21:02.520Z,21.30
2022-10-04T17:23:54.603Z,21.20
2022-10-04T17:26:43.090Z,21.00
2022-10-04T17:29:33.312Z,20.90
2022-10-04T17:32:26.088Z,20.80
2022-10-04T17:35:12.090Z,20.70
2022-10-04T17:37:47.971Z,20.60
2022-10-04T17:40:38.415Z,20.60
2022-10-04T17:43:17.302Z,20.50
2022-10-04T17:46:01.184Z,20.40
2022-10-04T17:48:48.863Z,20.30
2022-10-04T17:51:52.284Z,20.20
2022-10-04T17:54:44.717Z,20.10
2022-10-04T17:57:25.217Z,20.10
2022-10-04T17:59:58.552Z,20.00
2022-10-04T18:02:42.281Z,19.90
2022-10-04T18:05:18.581Z,19.80
2022-10-04T18:07:54.930Z,19.70
2022-10-04T18:10:28.857Z,19.60
2022-10-04T18:13:01.921Z,19.40
2022-10-04T18:15:33.456Z,19.30
2022-10-04T18:18:18.750Z,19.10
2022-10-04T18:21:05.177Z,19.00
2022-10-04T18:23:36.877Z,18.90
2022-10-04T18:26:11.792Z,18.90
2022-10-04T18:28:41.179Z,18.80
2022-10-04T18:31:23.919Z,18.70
2022-10-04T18:33:53.901Z,18.70
2022-10-04T18:36:24.696Z,18.60
2022-10-04T18:39:20.076Z,18.60
2022-10-04T18:41:59.667Z,18.50
2022-10-04T18:44:31.176Z,18.40
2022-10-04T18:47:02.205Z,18.40
2022-10-04T18:49:32.869Z,18.40
2022-10-04T18:52:16.114Z,18.40
2022-10-04T18:54:50.740Z,18.40
2022-10-04T18:57:34.801Z,18.30
2022-10-04T19:00:28.783Z,18.30
2022-10-04T19:03:08.522Z,18.20
2022-10-04T19:05:41.773Z,18.10
2022-10-04T19:08:25.204Z,18.10
2022-10-04T19:10:57.872Z,18.10
2022-10-04T19:13:35.073Z,18.00
2022-10-04T19:16:16.469Z,18.10
2022-10-04T19:19:07.334Z,18.00
2022-10-04T19:21:45.521Z,18.00
2022-10-04T19:24:41.868Z,17.90
2022-10-04T19:27:21.507Z,17.70
2022-10-04T19:30:03.683Z,17.60
2022-10-04T19:32:43.918Z,17.50
2022-10-04T19:35:23.628Z,17.50
2022-10-04T19:38:00.120Z,17.50
2022-10-04T19:40:38.806Z,17.50
2022-10-04T19:43:11.483Z,17.40
2022-10-04T19:45:45.697Z,17.40
2022-10-04T19:48:24.247Z,17.30
2022-10-04T19:50:59.527Z,17.30
2022-10-04T19:53:36.967Z,17.20
2022-10-04T19:56:10.397Z,17.20
2022-10-04T19:58:41.835Z,17.20
2022-10-04T20:01:12.699Z,17.20
2022-10-04T20:03:42.097Z,17.20
2022-10-04T20:06:11.375Z,17.10
2022-10-04T20:09:02.277Z,17.10
2022-10-04T20:11:49.475Z,17.00
2022-10-04T20:14:47.043Z,17.00
2022-10-04T20:17:33.158Z,17.00
2022-10-04T20:20:10.945Z,17.10
2022-10-04T20:23:00.727Z,17.10
2022-10-04T20:26:02.348Z,17.00
2022-10-04T20:28:44.071Z,16.90
2022-10-04T20:31:28.086Z,16.90
2022-10-04T20:33:55.996Z,16.90
2022-10-04T20:36:55.510Z,16.80
2022-10-04T20:40:00.232Z,16.80
2022-10-04T20:42:31.713Z,16.70
2022-10-04T20:45:02.199Z,16.70
2022-10-04T20:47:40.160Z,16.70
2022-10-04T20:50:27.001Z,16.70
2022-10-04T20:52:59.221Z,16.70
2022-10-04T20:55:29.391Z,16.60
2022-10-04T20:58:02.586Z,16.50
2022-10-04T21:00:37.018Z,16.50
2022-10-04T21:03:09.795Z,16.50
2022-10-04T21:05:38.467Z,16.50
2022-10-04T21:08:23.165Z,16.50
2022-10-04T21:11:27.446Z,16.50
2022-10-04T21:13:57.886Z,16.50
2022-10-04T21:16:47.107Z,16.30
2022-10-04T21:19:46.210Z,16.30
2022-10-04T21:22:35.366Z,16.20
2022-10-04T21:25:24.582Z,16.10
2022-10-04T21:27:52.486Z,16.10
2022-10-04T21:30:20.765Z,16.00
2022-10-04T21:32:48.684Z,16.00
2022-10-04T21:35:16.586Z,15.90
2022-10-04T21:37:44.477Z,15.90
2022-10-04T21:40:14.662Z,15.80
2022-10-04T21:42:42.517Z,15.80
2022-10-04T21:45:11.179Z,15.80
2022-10-04T21:47:39.063Z,15.80
2022-10-04T21:50:07.561Z,15.80
2022-10-04T21:52:35.459Z,15.70
2022-10-04T21:55:03.333Z,15.70
2022-10-04T21:57:35.662Z,15.70
2022-10-04T22:00:05.178Z,15.70
2022-10-04T22:02:33.037Z,15.70
2022-10-04T22:05:00.936Z,15.70
2022-10-04T22:07:28.985Z,15.70
2022-10-04T22:09:56.803Z,15.70
2022-10-04T22:12:24.608Z,15.70
2022-10-04T22:14:53.853Z,15.60
2022-10-04T22:17:21.739Z,15.60
2022-10-04T22:19:49.774Z,15.60
2022-10-04T22:22:18.299Z,15.50
2022-10-04T22:24:46.293Z,15.50
2022-10-04T22:27:15.907Z,15.40
2022-10-04T22:29:44.518Z,15.40
2022-10-04T22:32:22.661Z,15.30
2022-10-04T22:34:51.295Z,15.20
2022-10-04T22:37:24.950Z,15.20
2022-10-04T22:39:53.640Z,15.20
2022-10-04T22:42:25.730Z,15.20
2022-10-04T22:44:53.591Z,15.10
2022-10-04T22:47:24.117Z,15.10
2022-10-04T22:49:54.076Z,15.10
2022-10-04T22:52:24.182Z,15.10
2022-10-04T22:54:54.190Z,15.10
2022-10-04T22:57:22.435Z,15.10
2022-10-04T22:59:51.777Z,15.10
2022-10-04T23:02:24.022Z,15.10
2022-10-04T23:04:53.418Z,15.10
2022-10-04T23:07:21.706Z,15.20
2022-10-04T23:09:50.083Z,15.10
2022-10-04T23:12:18.013Z,15.10
2022-10-04T23:14:45.925Z,15.00
2022-10-04T23:17:23.974Z,15.10
2022-10-04T23:19:55.158Z,14.90
2022-10-04T23:22:28.624Z,14.90
2022-10-04T23:24:57.613Z,14.90
2022-10-04T23:27:25.466Z,14.80
2022-10-04T23:29:59.226Z,14.80
2022-10-04T23:32:28.709Z,14.70
2022-10-04T23:34:57.177Z,14.70
2022-10-04T23:37:28.287Z,14.70
2022-10-04T23:39:56.353Z,14.70
2022-10-04T23:42:29.564Z,14.70
2022-10-04T23:44:58.721Z,14.70
2022-10-04T23:47:35.941Z,14.70
2022-10-04T23:50:17.383Z,14.60
2022-10-04T23:52:46.093Z,14.60
2022-10-04T23:55:18.118Z,14.60
2022-10-04T23:57:46.762Z,14.60
